VREMENSKI PODATKI

VČERAJ
Time Temp. Dewp. Hum. Smer vet Hitrost ve Wind gust Bar. 1h Prec. 24h Prec.
00:04 15.7 12.6 82 0 0 1010.1 0.0000 0.0000
00:13 15.6 12.5 82 0 0 1010.2 0.0000 0.0000
00:23 15.5 12.4 82 0 0 1010.2 0.0000 0.0000
00:34 15.3 12.4 83 0 0 1010.3 0.0000 0.0000
00:44 15.2 12.3 83 0 0 1010.2 0.0000 0.0000
00:54 15.1 12.4 84 0 0 1010.2 0.0000 0.0000
01:04 15.1 12.4 84 0 0 1010.2 0.0000 0.0000
01:14 15 12.3 84 0 0 1010.3 0.0000 0.0000
01:24 14.8 12.3 85 0 0 1010.2 0.0000 0.0000
01:34 14.6 12.1 85 0 0 1010.1 0.0000 0.0000
01:45 14.5 12 85 0 0 1009.9 0.0000 0.0000
01:54 14.4 12.1 86 0 0 1009.9 0.0000 0.0000
02:04 14.4 12.3 87 0 0 1009.7 0.0000 0.0000
02:15 14.3 12 86 0 0 1009.6 0.0000 0.0000
02:25 14.2 11.9 86 0 0 1009.6 0.0000 0.0000
02:35 14 11.9 87 0 0 1009.6 0.0000 0.0000
02:44 13.9 11.8 87 0 0 1009.7 0.0000 0.0000
02:55 13.8 11.8 88 0 0 1009.7 0.0000 0.0000
03:05 13.8 12 89 0 0 1009.6 0.0000 0.0000
03:15 13.8 11.8 88 0 0 1009.6 0.0000 0.0000
03:25 13.7 11.8 88 0 0 1009.5 0.0000 0.0000
03:35 13.7 11.9 89 0 0 1009.5 0.0000 0.0000
03:45 13.6 11.8 89 0 0 1009.6 0.0000 0.0000
03:55 13.5 11.6 88 0 0 1009.5 0.0000 0.0000
04:06 13.5 11.7 89 0 0 1009.6 0.0000 0.0000
04:16 13.3 11.5 89 0 0 1009.5 0.0000 0.0000
04:25 13.2 11.6 90 0 0 1009.6 0.0000 0.0000
04:36 13.1 11.5 90 0 0 1009.6 0.0000 0.0000
04:46 13.1 11.5 90 0 0 1009.5 0.0000 0.0000
04:56 13.1 11.7 91 0 0 1009.4 0.0000 0.0000
05:06 13.1 11.7 91 0 0 1009.4 0.0000 0.0000
05:16 13.2 11.8 91 0 0 1009.3 0.0000 0.0000
05:26 13.3 11.9 91 0 0 1009.3 0.0000 0.0000
05:36 13.5 12.2 92 0 0 1009.3 0.0000 0.0000
05:46 13.5 12.1 91 0 0 1009.2 0.0000 0.0000
05:57 13.5 12.1 91 0 0 1009.3 0.0000 0.0000
06:06 13.5 12.1 91 0 0 1009.2 0.0000 0.0000
06:16 13.5 12.1 91 0 0 1009.3 0.0000 0.0000
06:27 13.6 12.2 91 0 0 1009.4 0.0000 0.0000
06:37 13.7 12.3 91 0 0 1009.5 0.0000 0.0000
06:47 13.8 12.4 91 0 0 1009.7 0.0000 0.0000
06:57 14.1 12.7 91 0 0 1009.7 0.0000 0.0000
07:07 14.5 12.9 90 0 0 1009.7 0.0000 0.0000
07:17 14.8 13 89 0 0 1009.8 0.0000 0.0000
07:27 15.3 13.5 89 0 0 1009.8 0.0000 0.0000
07:38 16.3 14 86 0 0 1009.8 0.0000 0.0000
07:47 16.9 14.2 84 0 0 1009.8 0.0000 0.0000
07:57 17.4 14.3 82 0 0 1009.8 0.0000 0.0000
08:07 17.8 14.5 81 0 0 1009.7 0.0000 0.0000
08:18 18.2 14.5 79 0 0 1009.8 0.0000 0.0000
08:28 18.4 14.9 80 0 0 1009.6 0.0000 0.0000
08:37 18.6 14.9 79 0 0 1009.6 0.0000 0.0000
08:48 19.1 15.4 79 0 0 1009.5 0.0000 0.0000
08:58 19.7 15.4 76 0 0 1009.6 0.0000 0.0000
09:08 20.7 15.9 74 0 0 1009.7 0.0000 0.0000
09:18 21.6 15.7 69 0 0 1009.6 0.0000 0.0000
09:28 22.1 15 64 0 0 1009.6 0.0000 0.0000
09:38 22.7 15.8 65 0 0 1009.6 0.0000 0.0000
09:47 23.2 15.8 63 0 0 1009.7 0.0000 0.0000
09:59 23.7 15.7 61 0 0 1009.7 0.0000 0.0000
10:09 24.2 15.7 59 0 0 1009.7 0.0000 0.0000
10:18 24.6 15.5 57 0 0 1009.8 0.0000 0.0000
10:28 25.3 16.2 57 0 0 1009.7 0.0000 0.0000
10:39 26.6 16.5 54 0 0 1009.8 0.0000 0.0000
10:49 28 16.6 50 0 0 1009.8 0.0000 0.0000
10:59 28.7 16.6 48 0 0 1009.9 0.0000 0.0000
11:09 28.5 16.8 49 0 0 1009.7 0.0000 0.0000
11:19 29.2 16.4 46 0 0 1009.8 0.0000 0.0000
11:29 28.2 15.8 47 0 0 1009.9 0.0000 0.0000
11:39 27.2 15.2 48 0 0 1010.1 0.0000 0.0000
11:50 26.3 15.7 52 0 0 1010.2 0.0000 0.0000
11:59 25.8 16.1 55 0 0 1010.1 0.0000 0.0000
12:09 26 16 54 0 0 1010.1 0.0000 0.0000
12:20 26.1 15.8 53 0 0 1010.1 0.0000 0.0000
12:30 26 16 54 0 0 1010.1 0.0000 0.0000
12:40 26 15.4 52 0 0 1010.1 0.0000 0.0000
12:49 25.6 15.6 54 0 0 1010.2 0.0000 0.0000
13:00 25.3 15.3 54 0 0 1010.2 0.0000 0.0000
13:10 25 15.3 55 0 0 1010.2 0.0000 0.0000
13:20 24.8 15.2 55 0 0 1010.2 0.0000 0.0000
13:30 24.6 15.2 56 0 0 1010.3 0.0000 0.0000
13:40 24.6 15.2 56 0 0 1010.4 0.0000 0.0000
13:50 24.6 15.8 58 0 0 1010.3 0.0000 0.0000
14:00 24.4 15.6 58 0 0 1010.4 0.0000 0.0000
14:11 24.2 16 60 0 0 1010.5 0.0000 0.0000
14:21 24.1 16.9 64 0 0 1010.4 0.0000 0.0000
14:30 24.5 16.7 62 0 0 1010.3 0.0000 0.0000
14:41 25.1 16.3 58 0 0 1010.4 0.0000 0.0000
14:51 25.7 16.5 57 0 0 1010.3 0.0000 0.0000
15:01 26 16.3 55 0 0 1010.2 0.0000 0.0000
15:11 26.9 17.1 55 0 0 1010.1 0.0000 0.0000
15:21 28.5 17.4 51 0 0 1010.1 0.0000 0.0000
15:31 30 16.8 45 0 0 1009.9 0.0000 0.0000
15:41 30.5 16.5 43 0 0 1009.9 0.0000 0.0000
15:51 30.2 16.2 43 0 0 1009.9 0.0000 0.0000
16:02 30.1 16.2 43 0 0 1009.9 0.0000 0.0000
16:11 29 15.9 45 0 0 1009.7 0.0000 0.0000
16:21 28.1 15.7 47 0 0 1009.6 0.0000 0.0000
16:32 27.5 15.5 48 0 0 1009.5 0.0000 0.0000
16:42 27.1 15.5 49 0 0 1009.5 0.0000 0.0000
16:52 27.1 15.5 49 0 0 1009.5 0.0000 0.0000
17:02 27.8 15.5 47 0 0 1009.3 0.0000 0.0000
17:12 28.8 16 46 0 0 1009.2 0.0000 0.0000
17:22 29.4 15.5 43 0 0 1008.9 0.0000 0.0000
17:32 30.1 15.4 41 0 0 1008.9 0.0000 0.0000
17:42 29.6 15 41 0 0 1008.9 0.0000 0.0000
17:52 28.7 14.2 41 0 0 1009 0.0000 0.0000
18:02 27.7 14 43 0 0 1009 0.0000 0.0000
18:12 27.5 14.5 45 0 0 1008.8 0.0000 0.0000
18:23 27.7 14.3 44 0 0 1008.8 0.0000 0.0000
18:32 27.2 14.2 45 0 0 1008.9 0.0000 0.0000
18:42 26.6 14 46 0 0 1008.7 0.0000 0.0000
18:53 26 14.1 48 0 0 1008.9 0.0000 0.0000
19:03 25.6 13.8 48 0 0 1008.9 0.0000 0.0000
19:13 25.3 14.4 51 0 0 1008.9 0.0000 0.0000
19:22 24.7 14.2 52 0 0 1009 0.0000 0.0000
19:33 24.6 14.1 52 0 0 1009 0.0000 0.0000
19:43 24.6 13.8 51 0 0 1009.1 0.0000 0.0000
19:53 24.6 13.8 51 0 0 1009.2 0.0000 0.0000
20:04 24.6 14.1 52 0 0 1009.3 0.0000 0.0000
20:13 24.3 14.1 53 0 0 1009.4 0.0000 0.0000
20:23 23.8 14.5 56 0 0 1009.4 0.0000 0.0000
20:33 23.3 14.6 58 0 0 1009.4 0.0000 0.0000
20:44 22.9 14.7 60 0 0 1009.4 0.0000 0.0000
20:54 22.4 14.8 62 0 0 1009.5 0.0000 0.0000
21:03 21.9 14.8 64 0 0 1009.6 0.0000 0.0000
21:14 21.3 14.5 65 0 0 1009.8 0.0000 0.0000
21:24 20.7 14.1 66 0 0 1009.9 0.0000 0.0000
21:34 20.1 14 68 0 0 1010.2 0.0000 0.0000
21:44 19.7 13.9 69 0 0 1010.3 0.0000 0.0000
21:54 19.5 13.7 69 0 0 1010.2 0.0000 0.0000
22:04 19.3 13.9 71 0 0 1010.3 0.0000 0.0000
22:14 19.1 14.4 74 0 0 1010.3 0.0000 0.0000
22:25 19.2 14.9 76 0 0 1010.3 0.0000 0.0000
22:35 19.4 15.3 77 0 0 1010.5 0.0000 0.0000
22:44 19.5 15.4 77 0 0 1010.5 0.0000 0.0000
22:54 19.4 15.1 76 0 0 1010.4 0.0000 0.0000
23:05 19.3 15.6 79 0 0 1010.3 0.0000 0.0000
23:15 19.3 15.8 80 0 0 1010.3 0.0000 0.0000
23:25 19.3 16 81 0 0 1010.3 0.0000 0.0000
23:35 19.4 15.9 80 0 0 1010.3 0.0000 0.0000
23:45 19.3 15.8 80 0 0 1010.5 0.0000 0.0000
23:55 19.1 15.6 80 0 0 1010.7 0.0000

DNEVNA STATISTIKA

2022-08-17
TEMPERATURA
POVPREČNO
21.0
VISOKO
30.5
15:41
NIZKO
13.1
04:36
PRITISK
POVPREČNO
1009.8
VISOKO
1010.7
23:55
NIZKO
1008.7
18:42
ROSIŠČE
POVPREČNO
14.3
VISOKO
17.4
15:21
NIZKO
11.5
04:16
VLAŽNOST
POVPREČNO
68
VISOKO
92
05:36
NIZKO
41
17:32
HITROST VETRA
POVPREČNO
0.0
VISOKO
0.0
23:26
WIND GUST
POVPREČNO
0.0
VISOKO
0.0
23:26
SMER VETRA
PREVLADUJOČA
%
PADAVINE
PADAVINE URNO
0.0
PADAVINE DNEVNO
0.0
TEMPERATURA (°C)
NIZKO
13.1
VISOKO
30.5
POVPREČNO
21.0
PRITISK (hpa)
NIZKO
1008.7
VISOKO
1010.7
POVPREČNO
1009.8
DEVICE